AirNav   Air Wisconsin Up To $57,000 Bonus
 
 409 users online  

KNDY Dahlgren Naval Surface Warfare Center Airport
Dahlgren, Virginia, USA

GOING TO DAHLGREN?


FAA INFORMATION EFFECTIVE 22 APRIL 2021

Location

FAA Identifier: NDY
Lat/Long: 38-19-58.3600N 077-02-13.2400W
38-19.972667N 077-02.220667W
38.3328778,-77.0370111
(estimated)
Elevation: 18 ft. / 5 m (estimated)
Variation: 09W (1985)
Time zone: UTC -4 (UTC -5 during Standard Time)
Zip code: 22448

Airport Operations

Airport use: Private use. Permission required prior to landing
Activation date: 01/1942
Control tower: no
ARTCC: WASHINGTON CENTER
FSS: LEESBURG FLIGHT SERVICE STATION
Attendance: 
OPERATING HRS 0700-1600 MON-FRI EXCEPT HOL. (10 MIN PRIOR ARR CTC DAHLGREN OPS ON CTAF FOR ADVISORY. IF NO RESPONSE CALL FIRE COMMUNICATIONS AND REQ ADVISORY AND CRASH VEHICLE.)
Segmented circle: no
Lights: AVBL ONLY DURING HRS OF OPERATION.

Airport Communications

CTAF: 120.15
WX AWOS-3 at EZF (20 nm W): 128.125 (540-372-6794)

Nearby radio navigation aids

VOR radial/distance  VOR name  Freq  Var
BRVr100/14.9BROOKE VORTAC114.5009W
OTTr222/26.3NOTTINGHAM VORTAC113.7010W
ADWr206/29.6ANDREWS VORTAC113.1010W
PXTr285/30.1PATUXENT VORTAC117.6010W
DCAr189/31.6WASHINGTON VOR/DME111.0009W

 
NDB name  Hdg/Dist  Freq  Var  ID
SHANNON088/19.923710WEZF . --.. ..-.
DAVEE179/20.022309WDAA -.. .- .-
OXONN192/26.033211WDCA -.. -.-. .-
PATUXENT285/30.040010WNHK -. .... -.-
GEORGETOWN182/36.132309WGTN --. - -.

Airport Services

Runway Information

Runway 16/34

Dimensions: 4191 x 150 ft. / 1277 x 46 m
Surface: asphalt
Weight bearing capacity: 
Single wheel: 35.0
Double wheel: 85.0
Double tandem: 92.0
Runway edge lights: low intensity
Operational restrictions: CLSD.
RUNWAY 16  RUNWAY 34
Latitude: 38-20.265810N38-19.679592N
Longitude: 077-02.452202W077-01.989055W
Elevation: 17.9 ft.16.0 ft.
Traffic pattern: rightleft
Runway heading: 157 magnetic, 148 true337 magnetic, 328 true
Visual slope indicator: 2-light PAPI on left2-light PAPI on left
Approach lights: ODALS: omnidirectional approach lighting system
Runway end identifier lights: yes
Touchdown point: yes, no lightsyes, no lights

Airport Ownership and Management from official FAA records

Ownership: U.S. Navy
Owner: US NAVY
OCEANOGRAPHIC OFC - CODE 3142
WASHINGTON, DC 20373

Additional Remarks

A17-1 PPR, 24 HR ADVANCE NTC, V249-8638. OFFL BUS ONLY. C703-663-8638/8639.
GUN TESTS CONDUCTED OVER RIVER RANGE TO SE & EXPLOSIVE TESTS OVER LAND TO SOUTH.
NO SERVICES.
RSTD: DAY VFR HELICOPTER USE ONLY. NO FUEL OR MAINT SVC AVBL.
FOR CD CTC WASHINGTON ARTCC AT 703-771-3587.

Instrument Procedures

There are no published instrument procedures at KNDY.

Some nearby airports with instrument procedures:

2W5 - Maryland Airport (16 nm N)
KNYG - Quantico Marine Corps Airfield / Turner Field (16 nm NW)
KEZF - Shannon Airport (20 nm W)
KRMN - Stafford Regional Airport (20 nm W)
2W6 - St Mary's County Regional Airport (23 nm E)
 
Loc | Ops | Rwys | IFR | FBO | Links
Com | Nav | Svcs | Stats | Notes
Area around KNDY (Dahlgren Naval Surface Warfare Center Airport)
 
Road maps at: MapQuest Bing Google
 
Aerial photo
WARNING: Photo may not be current or correct
Aerial photo of KNDY (Dahlgren Naval Surface Warfare Center Airport)
Do you have a better or more recent aerial photo of Dahlgren Naval Surface Warfare Center Airport that you would like to share? If so, please send us your photo.

 
Sectional chart

 
Airport distance calculator
Flying to Dahlgren Naval Surface Warfare Center Airport? Find the distance to fly.

From to KNDY

Sunrise and sunset
Times for 16-May-2021
 Local
(UTC-4)
 Zulu
(UTC)
Morning civil twilight05:2709:27
Sunrise05:5709:57
Sunset20:1200:12
Evening civil twilight20:4200:42

Current date and time
Zulu (UTC)  16-May-2021 10:22:00
Local (UTC-4)  16-May-2021 06:22:00
 
METAR
KNYG 
15nm NW 
160956Z AUTO 28003KT 9SM CLR 11/08 A3027 RMK AO2 SLP251 T01060078
KEZF 
20nm W 
160955Z AUTO 13003KT 10SM CLR 08/06 A3026 RMK AO2 T00840061
KRMN 
20nm W 
160955Z AUTO 00000KT 10SM CLR 07/06 A3029 RMK AO2 T00700055
K2W6 
23nm E 
160955Z AUTO 00000KT 10SM CLR 07/06 A3028 RMK AO1
KDAA 
24nm N 
160956Z AUTO 00000KT 10SM CLR 07/06 A3025 RMK AO2 SLP246 T00660059 $
KXSA 
29nm S 
160955Z AUTO 00000KT 10SM CLR 06/06 A3028 RMK AO2 T00570057
KADW 
30nm N 
160956Z AUTO 17004KT 10SM CLR 08/07 A3025 RMK AO2 SLP250 T00770065 $
KNHK 
30nm E 
160952Z AUTO 00000KT 10SM CLR 09/08 A3026 RMK AO2 SLP247 T00890083 $
TAF
KNYG 
15nm NW 
1521/1621 VRB06KT 9999 SKC QNH3019INS FM152200 VRB06KT 9999 SCT050 QNH3020INS T23/1521Z T09/1609Z LAST NO AMENDS UNTIL 1709
NOTAMs
Click for the latest NOTAMs
NOTAMs are issued by the DoD/FAA and will open in a separate window not controlled by AirNav.

 

 
 

Would you like to see your business listed on this page?

 If your business provides an interesting product or service to pilots, flight crews, aircraft, or users of the Dahlgren Naval Surface Warfare Center Airport, you should consider listing it here.  To start the listing process, click on the button below
 
Add a business
 

Other Pages about Dahlgren Naval Surface Warfare Center Airport

Update a link
 
Copyright © AirNav, LLC. All rights reserved. Privacy Policy  Contact